createdAt,value
2022-11-05T00:03:19.397Z,80.23
2022-11-05T00:08:43.921Z,81.47
2022-11-05T00:14:07.020Z,81.77
2022-11-05T00:19:13.737Z,82.11
2022-11-05T00:24:38.533Z,82.86
2022-11-05T00:29:44.572Z,83.08
2022-11-05T00:34:51.990Z,83.20
2022-11-05T00:39:59.595Z,83.10
2022-11-05T00:45:07.076Z,83.52
2022-11-05T00:50:17.761Z,83.58
2022-11-05T00:55:26.674Z,83.54
2022-11-05T01:00:34.280Z,83.69
2022-11-05T01:05:46.232Z,83.89
2022-11-05T01:10:56.815Z,83.88
2022-11-05T01:16:09.065Z,83.77
2022-11-05T01:21:19.451Z,84.09
2022-11-05T01:26:52.998Z,84.27
2022-11-05T01:31:59.888Z,84.40
2022-11-05T01:37:06.004Z,84.99
2022-11-05T01:42:23.612Z,84.67
2022-11-05T01:47:56.629Z,85.31
2022-11-05T01:53:17.512Z,85.75
2022-11-05T01:58:29.547Z,86.09
2022-11-05T02:03:36.236Z,86.19
2022-11-05T02:08:56.747Z,87.01
2022-11-05T02:14:05.120Z,87.09
2022-11-05T02:19:55.508Z,87.21
2022-11-05T02:25:29.365Z,87.01
2022-11-05T02:30:48.066Z,87.43
2022-11-05T02:36:17.427Z,87.31
2022-11-05T02:41:31.935Z,87.89
2022-11-05T02:46:51.372Z,87.67
2022-11-05T02:52:01.096Z,87.49
2022-11-05T02:57:07.775Z,87.97
2022-11-05T03:02:15.843Z,87.88
2022-11-05T03:07:43.503Z,88.20
2022-11-05T03:14:02.959Z,87.79
2022-11-05T03:19:19.095Z,88.23
2022-11-05T03:24:29.744Z,88.42
2022-11-05T03:29:39.948Z,88.78
2022-11-05T03:34:51.999Z,88.59
2022-11-05T03:40:02.470Z,88.47
2022-11-05T03:45:17.195Z,88.62
2022-11-05T03:50:38.488Z,88.69
2022-11-05T03:55:54.211Z,88.72
2022-11-05T04:01:03.505Z,88.59
2022-11-05T04:06:30.074Z,88.81
2022-11-05T04:11:54.958Z,88.43
2022-11-05T04:17:10.198Z,88.65
2022-11-05T04:22:35.352Z,88.97
2022-11-05T04:27:41.492Z,88.78
2022-11-05T04:33:06.744Z,88.52
2022-11-05T04:38:18.652Z,89.06
2022-11-05T04:43:24.819Z,88.79
2022-11-05T04:48:30.976Z,89.08
2022-11-05T04:53:38.785Z,89.40
2022-11-05T04:58:45.610Z,89.29
2022-11-05T05:03:53.005Z,89.16
2022-11-05T05:09:00.555Z,89.05
2022-11-05T05:14:06.596Z,88.80
2022-11-05T05:19:12.901Z,88.80
2022-11-05T05:24:25.206Z,89.23
2022-11-05T05:29:31.309Z,89.21
2022-11-05T05:34:38.745Z,89.06
2022-11-05T05:39:48.138Z,88.94
2022-11-05T05:44:54.187Z,89.13
2022-11-05T05:50:00.469Z,88.91
2022-11-05T05:55:10.062Z,89.00
2022-11-05T06:00:17.115Z,89.42
2022-11-05T06:05:23.164Z,89.00
2022-11-05T06:10:30.612Z,89.59
2022-11-05T06:15:37.179Z,89.27
2022-11-05T06:20:43.365Z,89.01
2022-11-05T06:25:51.033Z,89.10
2022-11-05T06:30:57.270Z,89.14
2022-11-05T06:36:04.944Z,88.90
2022-11-05T06:41:12.912Z,89.07
2022-11-05T06:46:18.987Z,89.16
2022-11-05T06:51:25.829Z,89.33
2022-11-05T06:56:33.528Z,89.13
2022-11-05T07:01:39.852Z,89.30
2022-11-05T07:06:46.171Z,89.39
2022-11-05T07:11:53.603Z,89.29
2022-11-05T07:16:59.792Z,89.59
2022-11-05T07:22:06.891Z,89.35
2022-11-05T07:27:14.889Z,89.30
2022-11-05T07:32:21.249Z,89.73
2022-11-05T07:37:27.546Z,89.14
2022-11-05T07:42:36.956Z,89.15
2022-11-05T07:47:49.123Z,88.85
2022-11-05T07:52:55.561Z,89.10
2022-11-05T07:58:03.184Z,89.01
2022-11-05T08:03:14.249Z,88.83
2022-11-05T08:08:21.952Z,89.40
2022-11-05T08:13:29.679Z,88.99
2022-11-05T08:18:36.273Z,88.79
2022-11-05T08:23:43.324Z,88.76
2022-11-05T08:28:50.894Z,88.34
2022-11-05T08:34:01.363Z,88.76
2022-11-05T08:39:14.288Z,88.90
2022-11-05T08:44:24.472Z,88.99
2022-11-05T08:49:30.746Z,89.00
2022-11-05T08:54:37.190Z,88.47
2022-11-05T08:59:44.600Z,88.39
2022-11-05T09:04:52.013Z,88.82
2022-11-05T09:09:58.298Z,88.62
2022-11-05T09:15:06.797Z,88.26
2022-11-05T09:20:13.990Z,88.66
2022-11-05T09:25:20.183Z,88.70
2022-11-05T09:30:27.589Z,88.84
2022-11-05T09:35:33.895Z,88.58
2022-11-05T09:40:44.334Z,89.27
2022-11-05T09:45:57.478Z,88.79
2022-11-05T09:51:05.603Z,88.76
2022-11-05T09:56:25.462Z,88.84
2022-11-05T10:01:37.104Z,88.88
2022-11-05T10:06:59.179Z,88.77
2022-11-05T10:12:13.419Z,88.77
2022-11-05T10:17:27.222Z,88.78
2022-11-05T10:22:33.170Z,88.58
2022-11-05T10:27:40.274Z,88.87
2022-11-05T10:32:49.916Z,88.55
2022-11-05T10:37:55.957Z,88.82
2022-11-05T10:43:08.401Z,88.74
2022-11-05T10:48:45.156Z,88.86
2022-11-05T10:54:01.700Z,89.20
2022-11-05T10:59:22.199Z,89.04
2022-11-05T11:04:37.448Z,89.28
2022-11-05T11:09:51.246Z,89.03
2022-11-05T11:15:03.887Z,89.21
2022-11-05T11:20:29.338Z,89.21
2022-11-05T11:25:47.669Z,88.80
2022-11-05T11:31:04.004Z,88.92
2022-11-05T11:36:14.713Z,88.73
2022-11-05T11:41:30.664Z,87.74
2022-11-05T11:56:10.809Z,87.92
2022-11-05T12:02:08.052Z,88.38
2022-11-05T12:07:33.994Z,89.00
2022-11-05T12:12:51.150Z,89.56
2022-11-05T12:18:05.157Z,90.00
2022-11-05T12:23:32.347Z,89.97
2022-11-05T12:29:18.367Z,90.08
2022-11-05T12:34:44.316Z,90.12
2022-11-05T12:40:15.825Z,89.88
2022-11-05T12:45:40.807Z,89.93
2022-11-05T12:50:54.495Z,90.46
2022-11-05T12:56:11.282Z,89.96
2022-11-05T13:01:25.091Z,89.86
2022-11-05T13:06:43.012Z,90.19
2022-11-05T13:11:55.141Z,90.06
2022-11-05T13:17:09.719Z,89.91
2022-11-05T13:28:40.750Z,90.17
2022-11-05T13:33:50.522Z,90.18
2022-11-05T13:39:07.417Z,90.24
2022-11-05T13:44:43.998Z,90.10
2022-11-05T13:50:25.517Z,89.90
2022-11-05T13:55:58.906Z,89.50
2022-11-05T14:01:18.847Z,89.39
2022-11-05T14:06:29.462Z,89.82
2022-11-05T14:11:39.465Z,89.45
2022-11-05T14:16:54.361Z,88.93
2022-11-05T14:22:01.759Z,88.45
2022-11-05T14:27:52.558Z,87.98
2022-11-05T14:33:15.740Z,88.62
2022-11-05T14:38:26.450Z,88.70
2022-11-05T14:43:36.615Z,88.51
2022-11-05T14:48:50.147Z,88.22
2022-11-05T14:54:06.124Z,88.76
2022-11-05T14:59:37.026Z,88.71
2022-11-05T15:04:48.208Z,88.37
2022-11-05T15:10:07.142Z,88.24
2022-11-05T15:15:24.671Z,88.35
2022-11-05T15:20:40.701Z,87.84
2022-11-05T15:25:53.832Z,87.66
2022-11-05T15:31:04.465Z,87.30
2022-11-05T15:36:30.108Z,86.78
2022-11-05T15:41:38.674Z,87.57
2022-11-05T15:46:46.998Z,87.62
2022-11-05T15:51:55.910Z,88.18
2022-11-05T15:57:03.074Z,87.56
2022-11-05T16:02:33.754Z,87.04
2022-11-05T16:07:44.541Z,86.70
2022-11-05T16:12:59.626Z,86.71
2022-11-05T16:18:24.627Z,86.85
2022-11-05T16:23:47.194Z,86.65
2022-11-05T16:28:55.076Z,86.85
2022-11-05T16:34:02.711Z,86.92
2022-11-05T16:39:12.185Z,87.03
2022-11-05T16:44:20.361Z,86.68
2022-11-05T16:49:28.109Z,86.44
2022-11-05T16:54:36.674Z,87.13
2022-11-05T16:59:45.472Z,86.54
2022-11-05T17:04:54.303Z,87.31
2022-11-05T17:10:03.665Z,87.04
2022-11-05T17:15:21.467Z,86.60
2022-11-05T17:20:40.764Z,86.53
2022-11-05T17:25:53.173Z,86.34
2022-11-05T17:31:02.609Z,86.12
2022-11-05T17:36:15.683Z,86.59
2022-11-05T17:41:26.628Z,86.45
2022-11-05T17:46:34.357Z,86.65
2022-11-05T17:51:41.709Z,86.44
2022-11-05T17:56:50.305Z,87.20
2022-11-05T18:01:58.862Z,87.21
2022-11-05T18:07:09.698Z,86.78
2022-11-05T18:12:19.223Z,87.25
2022-11-05T18:17:26.200Z,87.21
2022-11-05T18:22:37.311Z,87.67
2022-11-05T18:27:47.338Z,88.08
2022-11-05T18:32:56.211Z,88.25
2022-11-05T18:38:06.239Z,88.39
2022-11-05T18:43:17.320Z,88.25
2022-11-05T18:48:25.212Z,88.35
2022-11-05T18:53:33.874Z,88.67
2022-11-05T18:58:45.356Z,88.36
2022-11-05T19:03:58.213Z,88.17
2022-11-05T19:09:12.777Z,88.56
2022-11-05T19:14:34.438Z,88.16
2022-11-05T19:19:42.214Z,88.31
2022-11-05T19:24:52.540Z,88.18
2022-11-05T19:30:02.450Z,87.81
2022-11-05T19:35:11.785Z,88.04
2022-11-05T19:40:20.133Z,87.88
2022-11-05T19:45:44.209Z,88.16
2022-11-05T19:50:52.308Z,88.13
2022-11-05T19:56:00.657Z,88.69
2022-11-05T20:01:11.783Z,88.63
2022-11-05T20:06:24.923Z,88.95
2022-11-05T20:11:32.861Z,88.88
2022-11-05T20:16:42.513Z,88.37
2022-11-05T20:21:51.622Z,88.72
2022-11-05T20:26:59.891Z,88.94
2022-11-05T20:32:09.580Z,88.44
2022-11-05T20:37:16.871Z,89.19
2022-11-05T20:42:25.180Z,88.93
2022-11-05T20:47:35.831Z,88.84
2022-11-05T20:52:44.422Z,88.88
2022-11-05T20:57:51.354Z,88.89
2022-11-05T21:03:01.678Z,88.81
2022-11-05T21:08:09.986Z,88.60
2022-11-05T21:13:18.468Z,88.65
2022-11-05T21:18:33.836Z,88.84
2022-11-05T21:23:42.983Z,88.61
2022-11-05T21:28:52.614Z,88.46
2022-11-05T21:34:01.071Z,88.66
2022-11-05T21:39:13.207Z,88.57
2022-11-05T21:44:20.912Z,88.63
2022-11-05T21:49:29.628Z,88.37
2022-11-05T21:54:54.067Z,88.32
2022-11-05T22:00:01.852Z,88.01
2022-11-05T22:05:15.322Z,87.96
2022-11-05T22:10:22.770Z,88.16
2022-11-05T22:15:30.169Z,88.13
2022-11-05T22:20:40.518Z,88.09
2022-11-05T22:25:47.324Z,87.98
2022-11-05T22:30:54.035Z,87.42
2022-11-05T22:36:02.045Z,87.78
2022-11-05T22:41:13.309Z,87.90
2022-11-05T22:46:22.819Z,87.34
2022-11-05T22:51:33.412Z,87.55
2022-11-05T22:56:43.189Z,86.43
2022-11-05T23:01:50.000Z,86.64
2022-11-05T23:07:15.509Z,86.03
2022-11-05T23:12:27.410Z,85.98
2022-11-05T23:17:51.399Z,86.35
2022-11-05T23:23:17.550Z,85.40
2022-11-05T23:28:24.343Z,85.33
2022-11-05T23:33:34.828Z,85.75
2022-11-05T23:38:42.742Z,85.18
2022-11-05T23:44:08.641Z,84.84
2022-11-05T23:49:15.160Z,84.86
2022-11-05T23:54:23.555Z,83.68
2022-11-05T23:59:29.828Z,84.37
